Buxhansa — A8TQ5 — position and weather

sailwx.info

Track history (hours):
 
Tides and Currents Weather Stations Pressure Air Temp Water Temp Dewpoint Dewpoint Depression Visibility Wind Speed Wind Dir Waves Ship Positions

Buxhansa

Last reported at 2017-Apr-09 13:30 UTC. Time now 2017-Apr-25 16:34 UTC.
Position N 22°31' E 120°12'.
Warning: this ship's position is 16 days out of date.

Length 208 m; draft 8.2 m.

Type: Ship. MMSI: 636091849.

Date/timePositionNaut miles runAvg speedWind from/ knotsBaromVisibWave heightAir tempDewpointWater temp
2017-Apr-09 13:30N 22°31' E 120°12'711.4
2017-Apr-09 12:55N 22°33' E 120°19'  
2017-Apr-03 23:54N 30°57' E 122°37'512.9
2017-Apr-03 23:29N 30°60' E 122°32'510.0
2017-Apr-03 23:00N 31°04' E 122°31'510.7
2017-Apr-03 22:31N 31°05' E 122°25'714.3
2017-Apr-03 22:00N 31°07' E 122°17'914.1
2017-Apr-03 21:20N 31°13' E 122°08'413.3
2017-Apr-03 21:00N 31°14' E 122°03'713.5
2017-Apr-03 20:30N 31°16' E 121°55'612.8
2017-Apr-03 20:01N 31°17' E 121°48'611.0
2017-Apr-03 19:30N 31°20' E 121°42'3 5.1
2017-Apr-03 19:00N 31°20' E 121°39'0 0.1
2017-Apr-03 18:30N 31°20' E 121°39'0 0.0
2017-Apr-03 17:59N 31°20' E 121°39'0 0.0
2017-Apr-03 17:30N 31°20' E 121°39'0 0.0
2017-Apr-03 16:55N 31°20' E 121°39'0 0.0
2017-Apr-03 16:27N 31°20' E 121°39'0 0.0
2017-Apr-03 16:00N 31°20' E 121°39'0 0.0
2017-Apr-03 15:30N 31°20' E 121°39'0 0.0
2017-Apr-03 13:51N 31°20' E 121°39'0 0.0
2017-Apr-03 13:13N 31°20' E 121°39'0 0.0
2017-Apr-03 13:00N 31°20' E 121°39'0 0.0
2017-Apr-03 12:28N 31°20' E 121°39'0 0.0
2017-Apr-03 12:00N 31°20' E 121°39'0 0.0
2017-Apr-03 11:30N 31°20' E 121°39'3 5.0
2017-Apr-03 10:59N 31°20' E 121°42'5 9.5
2017-Apr-03 10:31N 31°18' E 121°47'4 7.0
2017-Apr-03 10:00N 31°17' E 121°51'510.9
2017-Apr-03 09:30N 31°15' E 121°57'611.7
2017-Apr-03 09:00N 31°14' E 122°04'5 9.1
2017-Apr-03 08:30N 31°12' E 122°09'711.9
2017-Apr-03 07:55N 31°08' E 122°15'511.7
2017-Apr-03 07:30N 31°06' E 122°20'5 8.7
2017-Apr-03 06:57N 31°07' E 122°26'3 7.2
2017-Apr-03 06:29N 31°07' E 122°30'3 5.9
2017-Apr-03 06:00N 31°07' E 122°33'5 7.5
2017-Apr-03 05:23N 31°08' E 122°38'1 3.0
2017-Apr-03 04:59N 31°09' E 122°39'0 0.1
2017-Apr-03 04:22N 31°09' E 122°39'0 0.1
2017-Apr-03 03:53N 31°09' E 122°39'0 0.0
2017-Apr-03 03:28N 31°09' E 122°39'0 0.0
2017-Apr-03 02:59N 31°09' E 122°39'0 0.1
2017-Apr-03 02:30N 31°09' E 122°39'0 0.1
2017-Apr-03 01:58N 31°09' E 122°39'0 0.0
2017-Apr-03 01:09N 31°09' E 122°39'0 0.0
2017-Apr-03 00:58N 31°09' E 122°39'0 0.0
2017-Apr-03 00:28N 31°09' E 122°39'0 0.0
2017-Apr-03 00:00N 31°09' E 122°39'0 0.0
2017-Apr-02 23:28N 31°09' E 122°39'0 0.0
2017-Apr-02 22:14N 31°09' E 122°39'0 0.0
2017-Apr-02 21:46N 31°09' E 122°39'0 0.2
2017-Apr-02 21:29N 31°09' E 122°39'0 0.0
2017-Apr-02 21:01N 31°09' E 122°39'0 0.0
2017-Apr-02 20:26N 31°09' E 122°39'0 0.0
2017-Apr-02 19:58N 31°09' E 122°39'0 0.0
2017-Apr-02 19:30N 31°09' E 122°39'0 0.0
2017-Apr-02 18:58N 31°09' E 122°39'0 0.0
2017-Apr-02 18:30N 31°09' E 122°39'0 0.0
2017-Apr-02 18:00N 31°09' E 122°39'0 0.0
2017-Apr-02 17:30N 31°09' E 122°39'0 0.0
2017-Apr-02 16:59N 31°09' E 122°39'0 0.0
2017-Apr-02 16:13N 31°09' E 122°39'0 0.0
2017-Apr-02 15:28N 31°09' E 122°39'0 0.0
2017-Apr-02 15:00N 31°09' E 122°39'0 0.0
2017-Apr-02 13:59N 31°09' E 122°39'0 0.0
2017-Apr-02 13:28N 31°09' E 122°39'0 0.0
2017-Apr-02 12:57N 31°09' E 122°39'0 0.0
2017-Apr-02 12:17N 31°09' E 122°39'0 0.0
2017-Apr-02 11:57N 31°09' E 122°39'0 0.0
2017-Apr-02 11:30N 31°09' E 122°39'0 0.0
2017-Apr-02 10:56N 31°09' E 122°39'0 0.0
2017-Apr-02 10:19N 31°09' E 122°39'0 0.1
2017-Apr-02 09:48N 31°09' E 122°39'0 0.0
2017-Apr-02 09:23N 31°09' E 122°39'0 0.1
2017-Apr-02 08:56N 31°09' E 122°39'0 0.0
2017-Apr-02 08:29N 31°09' E 122°39'0 0.0
2017-Apr-02 07:59N 31°09' E 122°39'0 0.0
2017-Apr-02 07:30N 31°09' E 122°39'0 0.0
2017-Apr-02 05:39N 31°09' E 122°39'0 0.0
2017-Apr-02 05:16N 31°09' E 122°39'0 0.0
2017-Apr-01 22:24N 31°09' E 122°39'0 0.0
2017-Apr-01 22:00N 31°09' E 122°39'  
Track history (hours):
 
Tides and Currents Weather Stations Pressure Air Temp Water Temp Dewpoint Dewpoint Depression Visibility Wind Speed Wind Dir Waves Ship Positions

Buxhansa

Last reported at 2017-Apr-09 13:30 UTC. Time now 2017-Apr-25 16:34 UTC.
Position N 22°31' E 120°12'.
Warning: this ship's position is 16 days out of date.

Length 208 m; draft 8.2 m.

Type: Ship. MMSI: 636091849.

Date/timePositionNaut miles runAvg speedWind from/ knotsBaromVisibWave heightAir tempDewpointWater temp
2017-Apr-09 13:30N 22°31' E 120°12'711.4
2017-Apr-09 12:55N 22°33' E 120°19'  
2017-Apr-03 23:54N 30°57' E 122°37'512.9
2017-Apr-03 23:29N 30°60' E 122°32'510.0
2017-Apr-03 23:00N 31°04' E 122°31'510.7
2017-Apr-03 22:31N 31°05' E 122°25'714.3
2017-Apr-03 22:00N 31°07' E 122°17'914.1
2017-Apr-03 21:20N 31°13' E 122°08'413.3
2017-Apr-03 21:00N 31°14' E 122°03'713.5
2017-Apr-03 20:30N 31°16' E 121°55'612.8
2017-Apr-03 20:01N 31°17' E 121°48'611.0
2017-Apr-03 19:30N 31°20' E 121°42'3 5.1
2017-Apr-03 19:00N 31°20' E 121°39'0 0.1
2017-Apr-03 18:30N 31°20' E 121°39'0 0.0
2017-Apr-03 17:59N 31°20' E 121°39'0 0.0
2017-Apr-03 17:30N 31°20' E 121°39'0 0.0
2017-Apr-03 16:55N 31°20' E 121°39'0 0.0
2017-Apr-03 16:27N 31°20' E 121°39'0 0.0
2017-Apr-03 16:00N 31°20' E 121°39'0 0.0
2017-Apr-03 15:30N 31°20' E 121°39'0 0.0
2017-Apr-03 13:51N 31°20' E 121°39'0 0.0
2017-Apr-03 13:13N 31°20' E 121°39'0 0.0
2017-Apr-03 13:00N 31°20' E 121°39'0 0.0
2017-Apr-03 12:28N 31°20' E 121°39'0 0.0
2017-Apr-03 12:00N 31°20' E 121°39'0 0.0
2017-Apr-03 11:30N 31°20' E 121°39'3 5.0
2017-Apr-03 10:59N 31°20' E 121°42'5 9.5
2017-Apr-03 10:31N 31°18' E 121°47'4 7.0
2017-Apr-03 10:00N 31°17' E 121°51'510.9
2017-Apr-03 09:30N 31°15' E 121°57'611.7
2017-Apr-03 09:00N 31°14' E 122°04'5 9.1
2017-Apr-03 08:30N 31°12' E 122°09'711.9
2017-Apr-03 07:55N 31°08' E 122°15'511.7
2017-Apr-03 07:30N 31°06' E 122°20'5 8.7
2017-Apr-03 06:57N 31°07' E 122°26'3 7.2
2017-Apr-03 06:29N 31°07' E 122°30'3 5.9
2017-Apr-03 06:00N 31°07' E 122°33'5 7.5
2017-Apr-03 05:23N 31°08' E 122°38'1 3.0
2017-Apr-03 04:59N 31°09' E 122°39'0 0.1
2017-Apr-03 04:22N 31°09' E 122°39'0 0.1
2017-Apr-03 03:53N 31°09' E 122°39'0 0.0
2017-Apr-03 03:28N 31°09' E 122°39'0 0.0
2017-Apr-03 02:59N 31°09' E 122°39'0 0.1
2017-Apr-03 02:30N 31°09' E 122°39'0 0.1
2017-Apr-03 01:58N 31°09' E 122°39'0 0.0
2017-Apr-03 01:09N 31°09' E 122°39'0 0.0
2017-Apr-03 00:58N 31°09' E 122°39'0 0.0
2017-Apr-03 00:28N 31°09' E 122°39'0 0.0
2017-Apr-03 00:00N 31°09' E 122°39'0 0.0
2017-Apr-02 23:28N 31°09' E 122°39'0 0.0
2017-Apr-02 22:14N 31°09' E 122°39'0 0.0
2017-Apr-02 21:46N 31°09' E 122°39'0 0.2
2017-Apr-02 21:29N 31°09' E 122°39'0 0.0
2017-Apr-02 21:01N 31°09' E 122°39'0 0.0
2017-Apr-02 20:26N 31°09' E 122°39'0 0.0
2017-Apr-02 19:58N 31°09' E 122°39'0 0.0
2017-Apr-02 19:30N 31°09' E 122°39'0 0.0
2017-Apr-02 18:58N 31°09' E 122°39'0 0.0
2017-Apr-02 18:30N 31°09' E 122°39'0 0.0
2017-Apr-02 18:00N 31°09' E 122°39'0 0.0
2017-Apr-02 17:30N 31°09' E 122°39'0 0.0
2017-Apr-02 16:59N 31°09' E 122°39'0 0.0
2017-Apr-02 16:13N 31°09' E 122°39'0 0.0
2017-Apr-02 15:28N 31°09' E 122°39'0 0.0
2017-Apr-02 15:00N 31°09' E 122°39'0 0.0
2017-Apr-02 13:59N 31°09' E 122°39'0 0.0
2017-Apr-02 13:28N 31°09' E 122°39'0 0.0
2017-Apr-02 12:57N 31°09' E 122°39'0 0.0
2017-Apr-02 12:17N 31°09' E 122°39'0 0.0
2017-Apr-02 11:57N 31°09' E 122°39'0 0.0
2017-Apr-02 11:30N 31°09' E 122°39'0 0.0
2017-Apr-02 10:56N 31°09' E 122°39'0 0.0
2017-Apr-02 10:19N 31°09' E 122°39'0 0.1
2017-Apr-02 09:48N 31°09' E 122°39'0 0.0
2017-Apr-02 09:23N 31°09' E 122°39'0 0.1
2017-Apr-02 08:56N 31°09' E 122°39'0 0.0
2017-Apr-02 08:29N 31°09' E 122°39'0 0.0
2017-Apr-02 07:59N 31°09' E 122°39'0 0.0
2017-Apr-02 07:30N 31°09' E 122°39'0 0.0
2017-Apr-02 05:39N 31°09' E 122°39'0 0.0
2017-Apr-02 05:16N 31°09' E 122°39'0 0.0
2017-Apr-01 22:24N 31°09' E 122°39'0 0.0
2017-Apr-01 22:00N 31°09' E 122°39'  

Dump ship's entire track history